Time;durP1;ratioP1;P1;durP2;ratioP2;P2;SDS_P1;SDS_P2;PMS_P1;PMS_P2;Temp;Humidity;BMP_temperature;BMP_pressure;BME280_temperature;BME280_humidity;BME280_pressure;Samples;Min_cycle;Max_cycle;Signal;HPM_P1;HPM_P2
2023/04/24 00:00:12;;;;;;;11.05;6.20;;;12.20;99.90;;;;;;5071785;28;20037;-75
2023/04/24 00:02:39;;;;;;;11.18;5.90;;;12.20;99.90;;;;;;5071775;28;20383;-75
2023/04/24 00:05:06;;;;;;;15.25;6.00;;;12.20;99.90;;;;;;5069624;28;20037;-75
2023/04/24 00:07:32;;;;;;;13.40;6.00;;;12.10;99.90;;;;;;5071398;28;20033;-76
2023/04/24 00:09:59;;;;;;;7.57;5.70;;;12.10;99.90;;;;;;5071596;28;20475;-75
2023/04/24 00:12:25;;;;;;;12.55;5.75;;;12.10;99.90;;;;;;5073444;28;20064;-76
2023/04/24 00:14:51;;;;;;;10.02;5.53;;;12.10;99.90;;;;;;5069084;28;20028;-75
2023/04/24 00:17:20;;;;;;;8.98;5.78;;;12.10;99.90;;;;;;5071852;28;20399;-75
2023/04/24 00:19:47;;;;;;;9.93;5.70;;;12.10;99.90;;;;;;5071814;28;20033;-75
2023/04/24 00:22:14;;;;;;;12.50;6.43;;;12.10;99.90;;;;;;5072160;28;20498;-75
2023/04/24 00:24:40;;;;;;;10.90;6.20;;;12.00;99.90;;;;;;5072449;28;20037;-75
2023/04/24 00:27:06;;;;;;;15.88;6.90;;;12.00;99.90;;;;;;5071256;28;20024;-75
2023/04/24 00:29:32;;;;;;;8.95;5.93;;;12.00;99.90;;;;;;5072383;28;20135;-75
2023/04/24 00:31:58;;;;;;;6.55;5.47;;;12.00;99.90;;;;;;5071478;28;20035;-75
2023/04/24 00:34:24;;;;;;;12.73;5.65;;;11.90;99.90;;;;;;5070479;28;20033;-75
2023/04/24 00:36:52;;;;;;;13.73;6.10;;;11.90;99.90;;;;;;5070544;28;20028;-75
2023/04/24 00:39:22;;;;;;;13.30;6.43;;;11.80;99.90;;;;;;5072010;28;20463;-75
2023/04/24 00:41:48;;;;;;;9.90;5.80;;;11.90;99.90;;;;;;5072167;28;20035;-75
2023/04/24 00:44:15;;;;;;;12.30;6.30;;;11.90;99.90;;;;;;5054546;28;20036;-74
2023/04/24 00:46:41;;;;;;;14.55;6.18;;;12.00;99.90;;;;;;5070897;28;20040;-75
2023/04/24 00:49:07;;;;;;;8.75;5.68;;;12.00;99.90;;;;;;5054280;28;20028;-75
2023/04/24 00:51:34;;;;;;;10.27;5.82;;;12.00;99.90;;;;;;5045713;28;20041;-75
2023/04/24 00:54:00;;;;;;;10.30;6.38;;;11.90;99.90;;;;;;5072998;28;20037;-76
2023/04/24 00:56:27;;;;;;;9.30;5.38;;;11.80;99.90;;;;;;5070961;28;20359;-75
2023/04/24 00:58:53;;;;;;;16.23;5.88;;;11.80;99.90;;;;;;5070999;28;20033;-75
2023/04/24 01:01:20;;;;;;;9.10;5.70;;;11.80;99.90;;;;;;5070426;28;20028;-75
2023/04/24 01:03:46;;;;;;;11.38;6.00;;;11.70;99.90;;;;;;5070557;28;20024;-75
2023/04/24 01:06:13;;;;;;;9.80;6.00;;;11.70;99.90;;;;;;5070843;28;20458;-75
2023/04/24 01:08:39;;;;;;;10.40;5.75;;;11.70;99.90;;;;;;5054701;28;20080;-76
2023/04/24 01:11:06;;;;;;;11.85;5.60;;;11.60;99.90;;;;;;5070712;28;20027;-75
2023/04/24 01:13:32;;;;;;;11.00;6.00;;;11.60;99.90;;;;;;5071536;28;20024;-75
2023/04/24 01:15:58;;;;;;;14.80;5.88;;;11.60;99.90;;;;;;5071423;28;20037;-75
2023/04/24 01:18:24;;;;;;;12.52;6.15;;;11.60;99.90;;;;;;5053648;28;20036;-75
2023/04/24 01:20:52;;;;;;;11.50;5.72;;;11.60;99.90;;;;;;5071480;28;20027;-75
2023/04/24 01:23:18;;;;;;;16.88;6.15;;;11.60;99.90;;;;;;5070159;28;20490;-75
2023/04/24 01:25:45;;;;;;;11.10;5.93;;;11.60;99.90;;;;;;5069675;28;20031;-75
2023/04/24 01:28:11;;;;;;;10.20;5.80;;;11.60;99.90;;;;;;5054191;28;20032;-76
2023/04/24 01:30:37;;;;;;;8.93;5.57;;;11.60;99.90;;;;;;5053367;28;20049;-76
2023/04/24 01:33:03;;;;;;;13.15;5.75;;;11.50;99.90;;;;;;5072057;28;20032;-76
2023/04/24 01:35:29;;;;;;;12.75;5.78;;;11.40;99.90;;;;;;5071347;28;20031;-75
2023/04/24 01:37:55;;;;;;;11.93;6.15;;;11.30;99.90;;;;;;5065810;28;20028;-75
2023/04/24 01:40:21;;;;;;;10.77;5.90;;;11.30;99.90;;;;;;5071787;28;20037;-75
2023/04/24 01:42:47;;;;;;;9.98;5.90;;;11.30;99.90;;;;;;5070881;28;20020;-76
2023/04/24 01:45:13;;;;;;;11.70;6.50;;;11.30;99.90;;;;;;5070474;27;20391;-75
2023/04/24 01:47:39;;;;;;;13.88;6.00;;;11.40;99.90;;;;;;5069597;28;20081;-75
2023/04/24 01:50:06;;;;;;;8.35;5.90;;;11.40;99.90;;;;;;5053100;28;20419;-75
2023/04/24 01:52:33;;;;;;;13.63;5.78;;;11.40;99.90;;;;;;5070743;28;20052;-75
2023/04/24 01:55:03;;;;;;;9.40;6.43;;;11.50;99.90;;;;;;5053508;28;20055;-75
2023/04/24 01:57:30;;;;;;;13.20;6.60;;;11.40;99.90;;;;;;5069768;28;20032;-76
2023/04/24 01:59:57;;;;;;;10.70;6.15;;;11.30;99.90;;;;;;5071966;28;20039;-75
2023/04/24 02:02:27;;;;;;;13.48;5.60;;;11.30;99.90;;;;;;5071807;28;20059;-75
2023/04/24 02:04:54;;;;;;;13.20;6.13;;;11.20;99.90;;;;;;5073464;28;20032;-75
2023/04/24 02:07:20;;;;;;;12.10;6.15;;;11.20;99.90;;;;;;5064782;28;20036;-76
2023/04/24 02:09:46;;;;;;;7.90;5.97;;;11.20;99.90;;;;;;5073482;28;20471;-75
2023/04/24 02:12:12;;;;;;;13.98;6.25;;;11.20;99.90;;;;;;5074786;28;20036;-75
2023/04/24 02:14:38;;;;;;;8.80;6.03;;;11.10;99.90;;;;;;5074337;28;20418;-74
2023/04/24 02:17:04;;;;;;;11.05;6.32;;;11.20;99.90;;;;;;5072960;28;20040;-75
2023/04/24 02:19:31;;;;;;;10.98;5.80;;;11.20;99.90;;;;;;5073444;28;20029;-75
2023/04/24 02:21:57;;;;;;;10.98;5.70;;;11.10;99.90;;;;;;5074333;28;20033;-75
2023/04/24 02:24:23;;;;;;;11.43;6.10;;;11.10;99.90;;;;;;5072812;28;20053;-76
2023/04/24 02:26:49;;;;;;;10.95;6.20;;;11.10;99.90;;;;;;5073644;28;20475;-75
2023/04/24 02:29:15;;;;;;;10.00;6.18;;;11.00;99.90;;;;;;5052964;28;20049;-75
2023/04/24 02:31:41;;;;;;;13.25;6.32;;;11.00;99.90;;;;;;5074322;28;20036;-75
2023/04/24 02:34:07;;;;;;;10.30;6.00;;;11.00;99.90;;;;;;5074505;28;20036;-75
2023/04/24 02:36:33;;;;;;;10.35;5.78;;;11.10;99.90;;;;;;5074234;28;20492;-75
2023/04/24 02:39:00;;;;;;;11.73;5.78;;;11.00;99.90;;;;;;5075140;28;20036;-75
2023/04/24 02:41:31;;;;;;;11.60;6.13;;;11.00;99.90;;;;;;5073839;28;20036;-75
2023/04/24 02:43:58;;;;;;;13.07;6.32;;;10.90;99.90;;;;;;5074978;28;20056;-75
2023/04/24 02:46:25;;;;;;;9.90;6.05;;;10.90;99.90;;;;;;5072275;28;20032;-75
2023/04/24 02:48:51;;;;;;;13.48;6.70;;;10.90;99.90;;;;;;5074359;28;20029;-75
2023/04/24 02:51:17;;;;;;;12.32;6.35;;;10.90;99.90;;;;;;5074645;28;20051;-75
2023/04/24 02:53:43;;;;;;;11.25;5.90;;;10.90;99.90;;;;;;5074205;28;20028;-75
2023/04/24 02:56:12;;;;;;;16.77;6.07;;;10.80;99.90;;;;;;5074630;28;20032;-75
2023/04/24 02:58:38;;;;;;;15.20;6.15;;;10.90;99.90;;;;;;5074303;28;20029;-75
2023/04/24 03:01:04;;;;;;;14.65;6.32;;;10.90;99.90;;;;;;5072545;28;20035;-75
2023/04/24 03:03:30;;;;;;;9.98;5.80;;;10.90;99.90;;;;;;5074920;28;20382;-76
2023/04/24 03:05:57;;;;;;;11.00;5.47;;;10.90;99.90;;;;;;5073704;28;20037;-75
2023/04/24 03:08:23;;;;;;;13.48;5.82;;;10.90;99.90;;;;;;5072326;28;20033;-75
2023/04/24 03:10:49;;;;;;;13.93;5.82;;;10.90;99.90;;;;;;5072777;28;20037;-75
2023/04/24 03:13:16;;;;;;;14.57;6.45;;;10.90;99.90;;;;;;5074574;28;20036;-75
2023/04/24 03:15:42;;;;;;;16.25;5.63;;;10.80;99.90;;;;;;5072728;28;20036;-75
2023/04/24 03:18:08;;;;;;;12.38;5.68;;;10.80;99.90;;;;;;5072595;28;20040;-75
2023/04/24 03:20:34;;;;;;;13.68;5.95;;;10.80;99.90;;;;;;5073929;28;20044;-75
2023/04/24 03:23:00;;;;;;;9.80;5.78;;;10.80;99.90;;;;;;5056156;28;20056;-75
2023/04/24 03:25:26;;;;;;;9.35;5.28;;;10.90;99.90;;;;;;5072852;28;20059;-75
2023/04/24 03:27:54;;;;;;;13.48;5.82;;;10.90;99.90;;;;;;5071345;28;20027;-75
2023/04/24 03:30:20;;;;;;;12.40;5.68;;;10.90;99.90;;;;;;5072521;28;20028;-75
2023/04/24 03:32:46;;;;;;;14.70;5.88;;;10.90;99.90;;;;;;5074199;28;20024;-75
2023/04/24 03:35:12;;;;;;;14.57;5.45;;;10.90;99.90;;;;;;5073360;28;20404;-75
2023/04/24 03:37:39;;;;;;;12.68;5.40;;;11.00;99.90;;;;;;5073073;28;20024;-75
2023/04/24 03:40:06;;;;;;;16.67;5.75;;;11.00;99.90;;;;;;5072669;28;20384;-75
2023/04/24 03:42:32;;;;;;;13.40;6.05;;;11.00;99.90;;;;;;5071545;28;20029;-75
2023/04/24 03:44:59;;;;;;;10.98;5.90;;;11.00;99.90;;;;;;5073573;28;20051;-75
2023/04/24 03:47:25;;;;;;;10.25;5.55;;;11.00;99.90;;;;;;5072585;28;20041;-75
2023/04/24 03:49:52;;;;;;;13.25;5.63;;;11.00;99.90;;;;;;5073280;28;20039;-75
2023/04/24 03:52:18;;;;;;;14.00;6.03;;;11.10;99.90;;;;;;5072482;28;20042;-74
2023/04/24 03:54:44;;;;;;;14.88;6.15;;;11.00;99.90;;;;;;5073883;28;20033;-75
2023/04/24 03:57:10;;;;;;;13.43;5.40;;;11.00;99.90;;;;;;5071575;28;20374;-75
2023/04/24 03:59:36;;;;;;;11.52;5.63;;;11.00;99.90;;;;;;5071955;28;20028;-74
2023/04/24 04:02:02;;;;;;;14.00;6.22;;;11.00;99.90;;;;;;5072853;28;20506;-75
2023/04/24 04:04:28;;;;;;;14.57;6.15;;;11.00;99.90;;;;;;5071160;28;20032;-75
2023/04/24 04:06:54;;;;;;;12.80;5.57;;;11.00;99.90;;;;;;5055739;28;20032;-74
2023/04/24 04:09:20;;;;;;;17.98;6.00;;;11.10;99.90;;;;;;5071323;28;20035;-75
2023/04/24 04:11:46;;;;;;;13.00;5.60;;;11.10;99.90;;;;;;5073384;28;20028;-75
2023/04/24 04:14:12;;;;;;;12.63;5.70;;;11.20;99.90;;;;;;5071293;28;20032;-75
2023/04/24 04:16:38;;;;;;;15.48;5.60;;;11.20;99.90;;;;;;5071231;28;20395;-75
2023/04/24 04:19:05;;;;;;;12.55;5.78;;;11.10;99.90;;;;;;5073398;28;20032;-74
2023/04/24 04:21:32;;;;;;;14.48;5.80;;;11.10;99.90;;;;;;5071123;28;20027;-75
2023/04/24 04:23:58;;;;;;;11.55;5.78;;;11.10;99.90;;;;;;5070188;28;20045;-75
2023/04/24 04:26:25;;;;;;;14.05;6.13;;;11.10;99.90;;;;;;5070978;28;20505;-75
2023/04/24 04:28:52;;;;;;;12.23;5.00;;;11.10;99.90;;;;;;5073383;28;20040;-75
2023/04/24 04:31:19;;;;;;;19.35;5.70;;;11.00;99.90;;;;;;5070646;28;20044;-75
2023/04/24 04:33:45;;;;;;;12.63;5.45;;;11.00;99.90;;;;;;5070746;28;20036;-75
2023/04/24 04:36:11;;;;;;;13.18;5.93;;;11.00;99.90;;;;;;5072914;28;20060;-69
2023/04/24 04:38:38;;;;;;;12.60;5.68;;;11.00;99.90;;;;;;5072628;28;20041;-74
2023/04/24 04:41:04;;;;;;;11.55;5.57;;;11.00;99.90;;;;;;5072469;28;20040;-75
2023/04/24 04:43:30;;;;;;;12.50;5.68;;;11.00;99.90;;;;;;5070206;28;20040;-75
2023/04/24 04:45:57;;;;;;;17.45;6.18;;;11.00;99.90;;;;;;5071422;28;20395;-75
2023/04/24 04:48:24;;;;;;;13.77;6.00;;;11.00;99.90;;;;;;5070985;28;20029;-75
2023/04/24 04:50:50;;;;;;;11.70;5.80;;;11.00;99.90;;;;;;5072361;28;20502;-75
2023/04/24 04:53:16;;;;;;;14.05;5.70;;;11.00;99.90;;;;;;5071521;28;20048;-75
2023/04/24 04:55:42;;;;;;;20.42;6.30;;;11.10;99.90;;;;;;5071015;28;20360;-75
2023/04/24 04:58:08;;;;;;;13.63;5.70;;;11.10;99.90;;;;;;5070868;28;20036;-75
2023/04/24 05:00:37;;;;;;;15.93;6.43;;;11.10;99.90;;;;;;5069518;28;20490;-75
2023/04/24 05:03:03;;;;;;;20.65;6.32;;;11.10;99.90;;;;;;5071106;28;20024;-75
2023/04/24 05:05:29;;;;;;;17.17;6.45;;;11.10;99.90;;;;;;5071898;28;20057;-75
2023/04/24 05:07:55;;;;;;;14.75;6.25;;;11.10;99.90;;;;;;5072422;28;20024;-75
2023/04/24 05:10:21;;;;;;;11.90;6.20;;;11.10;99.90;;;;;;5072050;28;20036;-75
2023/04/24 05:12:49;;;;;;;13.63;5.93;;;11.10;99.90;;;;;;5070469;28;20028;-75
2023/04/24 05:15:15;;;;;;;16.80;7.07;;;11.00;99.90;;;;;;5069113;27;20392;-74
2023/04/24 05:17:41;;;;;;;12.77;6.63;;;11.00;99.90;;;;;;5069322;28;20028;-75
2023/04/24 05:20:08;;;;;;;15.48;6.78;;;11.00;99.90;;;;;;5071430;28;20029;-75
2023/04/24 05:22:34;;;;;;;16.45;6.85;;;11.10;99.90;;;;;;5066686;28;20033;-75
2023/04/24 05:25:00;;;;;;;18.70;7.93;;;11.20;99.90;;;;;;5070063;28;20533;-75
2023/04/24 05:27:26;;;;;;;16.52;10.05;;;11.20;99.90;;;;;;5072100;28;20021;-75
2023/04/24 05:29:52;;;;;;;13.50;9.80;;;11.20;99.90;;;;;;5071916;28;20506;-75
2023/04/24 05:32:18;;;;;;;17.10;8.43;;;11.20;99.90;;;;;;5070595;28;20036;-75
2023/04/24 05:34:44;;;;;;;15.65;8.32;;;11.20;99.90;;;;;;5069665;28;20466;-75
2023/04/24 05:37:10;;;;;;;14.27;7.88;;;11.30;99.90;;;;;;5070851;28;20475;-74
2023/04/24 05:39:37;;;;;;;16.40;7.20;;;11.30;99.90;;;;;;5069530;28;20032;-75
2023/04/24 05:42:04;;;;;;;11.18;6.20;;;11.30;99.90;;;;;;5071061;28;20027;-75
2023/04/24 05:44:30;;;;;;;13.98;6.70;;;11.30;99.90;;;;;;5071425;28;20043;-75
2023/04/24 05:46:56;;;;;;;13.30;6.57;;;11.20;99.90;;;;;;5070640;28;20029;-75
2023/04/24 05:49:23;;;;;;;11.65;5.80;;;11.30;99.90;;;;;;5070351;28;20387;-75
2023/04/24 05:51:49;;;;;;;11.93;6.90;;;11.40;99.90;;;;;;5070839;28;20047;-75
2023/04/24 05:54:15;;;;;;;12.70;6.53;;;11.50;99.90;;;;;;5071356;28;20471;-74
2023/04/24 05:56:41;;;;;;;14.90;5.75;;;11.70;99.90;;;;;;5071950;28;20033;-74
2023/04/24 05:59:07;;;;;;;15.68;5.40;;;11.90;99.90;;;;;;5069688;28;20039;-73
2023/04/24 06:01:33;;;;;;;13.13;5.50;;;12.00;99.90;;;;;;5068858;28;20388;-73
2023/04/24 06:04:00;;;;;;;12.35;5.60;;;12.20;99.90;;;;;;5068177;28;20040;-73
2023/04/24 06:06:27;;;;;;;11.60;5.50;;;12.50;99.90;;;;;;5069012;28;20040;-72
2023/04/24 06:08:53;;;;;;;11.73;5.03;;;12.70;99.90;;;;;;5070173;28;20040;-72
2023/04/24 06:11:19;;;;;;;12.95;5.80;;;12.80;99.90;;;;;;5072016;28;20029;-73
2023/04/24 06:13:45;;;;;;;11.43;5.50;;;13.00;99.90;;;;;;5066049;28;20027;-74
2023/04/24 06:16:11;;;;;;;13.13;5.85;;;13.30;99.90;;;;;;5070984;28;20222;-74
2023/04/24 06:18:37;;;;;;;12.25;5.22;;;13.50;99.90;;;;;;5067941;28;20028;-74
2023/04/24 06:21:03;;;;;;;12.20;5.10;;;13.60;99.90;;;;;;5067374;28;20473;-74
2023/04/24 06:23:32;;;;;;;13.10;5.20;;;13.80;99.90;;;;;;5071446;28;20037;-74
2023/04/24 06:25:58;;;;;;;12.75;5.45;;;13.90;99.90;;;;;;5069228;28;20501;-75
2023/04/24 06:28:26;;;;;;;12.73;5.20;;;14.10;99.90;;;;;;5064756;28;20032;-74
2023/04/24 06:30:52;;;;;;;11.52;5.78;;;14.20;99.90;;;;;;5068266;28;20045;-74
2023/04/24 06:33:18;;;;;;;8.98;5.03;;;14.40;99.90;;;;;;5062745;28;20490;-75
2023/04/24 06:35:44;;;;;;;11.02;4.85;;;14.40;99.90;;;;;;5066039;28;20029;-75
2023/04/24 06:38:10;;;;;;;9.52;4.55;;;14.40;99.90;;;;;;5067727;28;20040;-74
2023/04/24 06:40:36;;;;;;;14.43;5.57;;;14.30;99.90;;;;;;5069552;28;20036;-75
2023/04/24 06:43:02;;;;;;;10.05;5.20;;;14.20;99.90;;;;;;5068501;28;20035;-75
2023/04/24 06:45:29;;;;;;;14.60;5.32;;;14.10;99.90;;;;;;5065654;28;20040;-75
2023/04/24 06:47:56;;;;;;;12.07;4.60;;;14.00;99.90;;;;;;5066914;28;20039;-75
2023/04/24 06:50:22;;;;;;;9.25;4.80;;;13.90;99.90;;;;;;5071755;28;20383;-75
2023/04/24 06:52:48;;;;;;;12.52;5.68;;;13.90;99.90;;;;;;5060269;28;20041;-75
2023/04/24 06:55:16;;;;;;;8.82;4.70;;;13.80;99.90;;;;;;5064478;28;20033;-75
2023/04/24 06:57:42;;;;;;;10.35;4.80;;;13.80;99.90;;;;;;5069436;28;20044;-75
2023/04/24 07:00:09;;;;;;;9.90;4.80;;;13.80;99.90;;;;;;5069973;28;20047;-74
2023/04/24 07:02:35;;;;;;;7.72;4.40;;;13.70;99.90;;;;;;5067859;28;20355;-75
2023/04/24 07:05:01;;;;;;;16.15;5.18;;;13.70;99.90;;;;;;5069399;28;20044;-75
2023/04/24 07:07:27;;;;;;;11.57;5.00;;;13.50;99.90;;;;;;5072589;28;20470;-75
2023/04/24 07:09:54;;;;;;;13.50;4.85;;;13.40;99.90;;;;;;5069452;28;20051;-75
2023/04/24 07:12:21;;;;;;;9.02;4.30;;;13.50;99.90;;;;;;5068745;28;20043;-72
2023/04/24 07:14:47;;;;;;;11.80;4.60;;;13.30;99.90;;;;;;5071073;28;20423;-74
2023/04/24 07:17:14;;;;;;;11.07;4.95;;;13.30;99.90;;;;;;5071129;28;20039;-74
2023/04/24 07:19:40;;;;;;;11.18;4.63;;;13.40;99.90;;;;;;5071755;28;20097;-75
2023/04/24 07:22:06;;;;;;;9.40;4.22;;;13.40;99.90;;;;;;5070759;28;20044;-74
2023/04/24 07:24:33;;;;;;;10.23;4.40;;;13.40;99.90;;;;;;5071663;28;20067;-75
2023/04/24 07:27:00;;;;;;;8.90;4.15;;;13.30;99.90;;;;;;5069067;28;20438;-75
2023/04/24 07:29:27;;;;;;;11.55;5.43;;;13.30;99.90;;;;;;5054162;28;20037;-75
2023/04/24 07:31:53;;;;;;;10.25;5.20;;;13.40;99.90;;;;;;5069918;28;20036;-75
2023/04/24 07:34:20;;;;;;;13.73;5.30;;;13.50;99.90;;;;;;5068322;28;20487;-77
2023/04/24 07:36:46;;;;;;;11.40;4.85;;;13.50;99.90;;;;;;5071161;28;20037;-76
2023/04/24 07:39:12;;;;;;;11.43;4.85;;;13.50;99.90;;;;;;5071340;28;20043;-74
2023/04/24 07:41:38;;;;;;;9.63;4.68;;;13.50;99.90;;;;;;5071701;28;20028;-74
2023/04/24 07:44:04;;;;;;;7.13;4.43;;;13.60;99.90;;;;;;5065799;28;20033;-74
2023/04/24 07:46:30;;;;;;;8.30;4.45;;;13.80;99.90;;;;;;5066661;28;20052;-74
2023/04/24 07:48:57;;;;;;;10.52;5.20;;;13.80;99.90;;;;;;5069173;28;20035;-74
2023/04/24 07:51:23;;;;;;;9.63;5.20;;;13.90;99.90;;;;;;5071554;28;20044;-74
2023/04/24 07:53:49;;;;;;;9.85;5.03;;;14.00;99.90;;;;;;5069279;28;20509;-75
2023/04/24 07:56:16;;;;;;;9.15;4.88;;;14.10;99.90;;;;;;5070242;28;20475;-74
2023/04/24 07:58:43;;;;;;;9.60;4.97;;;14.00;99.90;;;;;;5053224;28;20032;-75
2023/04/24 08:01:09;;;;;;;10.60;4.88;;;14.00;99.90;;;;;;5071549;28;20033;-74
2023/04/24 08:03:35;;;;;;;8.38;4.95;;;14.10;99.90;;;;;;5070228;28;20031;-73
2023/04/24 08:06:01;;;;;;;9.23;4.95;;;14.10;99.90;;;;;;5062571;28;20040;-74
2023/04/24 08:08:27;;;;;;;8.90;4.90;;;14.10;99.90;;;;;;5061720;28;20020;-74
2023/04/24 08:10:53;;;;;;;10.40;5.82;;;14.10;99.90;;;;;;5070412;28;20056;-74
2023/04/24 08:13:19;;;;;;;10.07;5.38;;;14.10;99.90;;;;;;5070794;28;20725;-75
2023/04/24 08:15:45;;;;;;;10.43;4.50;;;14.20;99.90;;;;;;5070449;28;20035;-74
2023/04/24 08:18:13;;;;;;;7.90;4.72;;;14.20;99.90;;;;;;5070648;28;20051;-74
2023/04/24 08:20:39;;;;;;;7.15;4.88;;;14.20;99.90;;;;;;5071788;28;20047;-75
2023/04/24 08:23:06;;;;;;;9.30;5.50;;;14.20;99.90;;;;;;5070366;28;20041;-75
2023/04/24 08:25:32;;;;;;;11.93;6.07;;;14.20;99.90;;;;;;5070067;28;20055;-74
2023/04/24 08:27:58;;;;;;;14.85;5.78;;;14.30;99.90;;;;;;5050295;28;20037;-75
2023/04/24 08:30:24;;;;;;;11.98;5.05;;;14.40;99.90;;;;;;5066554;27;20040;-74
2023/04/24 08:32:50;;;;;;;7.53;4.85;;;14.30;99.90;;;;;;5068609;28;20119;-75
2023/04/24 08:35:16;;;;;;;7.80;4.88;;;14.40;99.90;;;;;;5069276;28;20043;-74
2023/04/24 08:37:42;;;;;;;7.72;4.68;;;14.50;99.90;;;;;;5070832;28;20036;-74
2023/04/24 08:40:17;;;;;;;14.43;5.22;;;14.60;99.90;;;;;;5071141;28;20539;-75
2023/04/24 08:42:44;;;;;;;12.32;4.75;;;14.70;99.90;;;;;;5064735;28;20033;-74
2023/04/24 08:45:11;;;;;;;8.57;4.00;;;14.80;99.90;;;;;;5067286;28;20040;-76
2023/04/24 08:47:38;;;;;;;7.28;4.18;;;14.90;99.90;;;;;;5069634;28;20025;-74
2023/04/24 08:50:05;;;;;;;4.93;3.90;;;14.90;99.90;;;;;;5068227;28;20096;-74
2023/04/24 08:52:35;;;;;;;5.72;3.50;;;14.90;99.90;;;;;;5070249;28;20043;-73
2023/04/24 08:55:02;;;;;;;7.13;4.05;;;15.10;99.90;;;;;;5067983;28;20041;-73
2023/04/24 08:57:29;;;;;;;6.57;3.67;;;15.30;99.90;;;;;;5066815;28;20507;-74
2023/04/24 08:59:55;;;;;;;5.93;3.90;;;15.50;99.90;;;;;;5069161;28;20032;-73
2023/04/24 09:02:21;;;;;;;6.53;3.83;;;15.80;99.90;;;;;;5067677;28;20068;-73
2023/04/24 09:04:47;;;;;;;6.82;4.05;;;16.00;99.90;;;;;;5071019;28;20037;-73
2023/04/24 09:07:14;;;;;;;6.60;3.80;;;16.00;99.90;;;;;;5069878;28;20036;-74
2023/04/24 09:09:40;;;;;;;6.88;4.05;;;16.10;99.90;;;;;;5069265;28;20025;-73
2023/04/24 09:12:06;;;;;;;9.52;3.78;;;16.10;99.90;;;;;;5069437;28;20048;-74
2023/04/24 09:14:32;;;;;;;7.55;3.83;;;16.10;99.90;;;;;;5071710;28;20497;-74
2023/04/24 09:16:59;;;;;;;8.52;4.22;;;16.10;99.90;;;;;;5064584;28;20040;-73
2023/04/24 09:19:25;;;;;;;8.35;4.35;;;16.10;99.90;;;;;;5071312;28;20036;-74
2023/04/24 09:21:51;;;;;;;10.82;5.10;;;16.30;99.90;;;;;;5070974;28;20036;-74
2023/04/24 09:24:20;;;;;;;5.78;5.20;;;16.60;99.90;;;;;;5061681;28;20363;-72
2023/04/24 09:26:46;;;;;;;9.23;5.57;;;16.80;99.90;;;;;;5068877;28;20036;-74
2023/04/24 09:29:16;;;;;;;9.00;5.25;;;16.90;99.90;;;;;;5062077;28;20482;-73
2023/04/24 09:31:43;;;;;;;8.07;5.93;;;17.10;99.90;;;;;;5065808;28;20028;-73
2023/04/24 09:34:09;;;;;;;7.28;5.82;;;17.00;99.90;;;;;;5067985;28;20395;-67
2023/04/24 09:36:40;;;;;;;7.80;6.35;;;17.00;99.90;;;;;;5070345;28;20044;-67
2023/04/24 09:39:17;;;;;;;10.45;5.75;;;17.00;99.90;;;;;;5069048;28;20071;-73
2023/04/24 09:41:54;;;;;;;10.07;5.72;;;17.00;99.90;;;;;;5065661;28;20031;-73
2023/04/24 09:44:21;;;;;;;10.48;6.45;;;17.10;99.90;;;;;;5053792;28;20514;-68
2023/04/24 09:46:57;;;;;;;8.18;6.07;;;17.10;99.90;;;;;;5069757;28;20119;-74
2023/04/24 09:49:28;;;;;;;8.90;5.93;;;17.20;99.90;;;;;;5052463;28;20021;-74
2023/04/24 09:52:04;;;;;;;8.48;6.15;;;17.20;99.90;;;;;;5068125;28;20048;-73
2023/04/24 09:54:31;;;;;;;9.05;5.68;;;17.10;99.90;;;;;;5066892;28;20025;-74
2023/04/24 09:56:57;;;;;;;8.98;6.18;;;16.90;99.90;;;;;;5069930;28;20029;-74
2023/04/24 09:59:23;;;;;;;11.30;5.45;;;16.80;99.90;;;;;;5069690;28;20024;-74
2023/04/24 10:01:50;;;;;;;7.65;5.25;;;16.60;99.90;;;;;;5069393;28;20039;-73
2023/04/24 10:04:21;;;;;;;9.73;5.72;;;16.50;99.90;;;;;;5071042;28;20138;-73
2023/04/24 10:06:51;;;;;;;6.63;5.35;;;16.40;99.90;;;;;;5071411;28;20036;-74
2023/04/24 10:09:18;;;;;;;8.25;5.60;;;16.50;99.90;;;;;;5069810;28;20029;-73
2023/04/24 10:11:45;;;;;;;7.78;5.13;;;16.50;99.90;;;;;;5069001;28;20047;-73
2023/04/24 10:14:12;;;;;;;6.95;5.05;;;16.50;99.90;;;;;;5069884;28;20033;-74
2023/04/24 10:16:40;;;;;;;7.68;5.10;;;16.30;99.90;;;;;;5068676;28;20059;-74
2023/04/24 10:19:06;;;;;;;8.40;5.28;;;16.30;99.90;;;;;;5070222;28;20356;-74
2023/04/24 10:21:33;;;;;;;7.60;5.40;;;16.30;99.90;;;;;;5067642;28;20379;-74
2023/04/24 10:23:59;;;;;;;7.25;5.40;;;16.30;99.90;;;;;;5071221;28;20029;-74
2023/04/24 10:26:26;;;;;;;9.13;5.50;;;16.20;99.90;;;;;;5072940;28;20041;-75
2023/04/24 10:28:52;;;;;;;6.28;5.32;;;16.10;99.90;;;;;;5073279;28;20035;-74
2023/04/24 10:31:19;;;;;;;15.15;9.25;;;16.00;99.90;;;;;;5071379;28;20536;-73
2023/04/24 10:33:45;;;;;;;8.63;6.13;;;16.10;99.90;;;;;;5071939;28;20037;-73
2023/04/24 10:36:11;;;;;;;9.68;6.28;;;16.10;99.90;;;;;;5073514;28;20039;-74
2023/04/24 10:38:38;;;;;;;10.77;6.47;;;16.00;99.90;;;;;;5072313;28;20021;-74
2023/04/24 10:41:15;;;;;;;10.98;5.93;;;16.00;99.90;;;;;;5072954;28;20059;-73
2023/04/24 10:43:42;;;;;;;10.80;6.47;;;16.10;99.90;;;;;;5072326;28;20037;-73
2023/04/24 10:46:10;;;;;;;11.30;6.63;;;16.20;99.90;;;;;;5056513;28;20036;-74
2023/04/24 10:48:36;;;;;;;13.32;6.57;;;16.30;99.90;;;;;;5072673;28;20497;-74
2023/04/24 10:51:02;;;;;;;8.63;5.97;;;16.30;99.90;;;;;;5073173;28;20254;-73
2023/04/24 10:53:29;;;;;;;10.20;6.55;;;16.40;99.90;;;;;;5039974;28;20426;-74
2023/04/24 10:56:02;;;;;;;9.32;6.15;;;16.50;99.90;;;;;;5072513;28;20029;-74
2023/04/24 10:58:59;;;;;;;10.60;6.30;;;16.50;99.90;;;;;;5072978;28;20020;-73
2023/04/24 11:01:32;;;;;;;10.20;6.55;;;16.40;99.90;;;;;;5073138;27;20793;-74
2023/04/24 11:03:59;;;;;;;6.97;6.03;;;16.40;99.90;;;;;;5072702;28;20040;-74
2023/04/24 11:06:33;;;;;;;9.10;6.60;;;16.40;99.90;;;;;;5056461;28;20037;-74
2023/04/24 11:09:11;;;;;;;7.53;5.97;;;16.20;99.90;;;;;;5071402;28;20024;-73
2023/04/24 11:11:37;;;;;;;7.28;6.18;;;16.10;99.90;;;;;;5070485;28;20047;-73
2023/04/24 11:14:06;;;;;;;13.27;6.32;;;16.00;99.90;;;;;;5055148;28;20374;-74
2023/04/24 11:16:33;;;;;;;13.07;6.20;;;15.90;99.90;;;;;;5081596;28;20036;-74
2023/04/24 11:19:16;;;;;;;9.95;5.55;;;15.70;99.90;;;;;;5073950;28;20024;-73
2023/04/24 11:21:45;;;;;;;11.70;5.88;;;15.60;99.90;;;;;;5072345;28;20498;-74
2023/04/24 11:24:48;;;;;;;13.70;5.85;;;15.50;99.90;;;;;;5072102;28;20036;-74
2023/04/24 11:27:21;;;;;;;10.63;5.43;;;15.50;99.90;;;;;;5062906;28;20071;-74
2023/04/24 11:29:49;;;;;;;7.95;5.35;;;15.60;99.90;;;;;;5072041;28;20017;-76
2023/04/24 11:32:34;;;;;;;10.75;5.78;;;15.70;99.90;;;;;;5071249;28;20043;-75
2023/04/24 11:35:03;;;;;;;15.40;5.90;;;15.80;99.90;;;;;;5071947;28;20036;-76
2023/04/24 11:37:36;;;;;;;11.52;6.88;;;16.00;99.90;;;;;;5070102;28;20048;-75
2023/04/24 11:40:03;;;;;;;8.18;5.72;;;16.10;99.90;;;;;;5072399;28;20024;-75
2023/04/24 11:42:39;;;;;;;9.93;6.13;;;16.30;99.90;;;;;;5072281;28;20033;-74
2023/04/24 11:45:13;;;;;;;9.98;6.20;;;16.50;99.90;;;;;;5072270;28;20036;-75
2023/04/24 11:47:39;;;;;;;10.38;6.57;;;16.60;99.90;;;;;;5071598;28;20479;-74
2023/04/24 11:50:07;;;;;;;9.52;7.00;;;16.80;99.90;;;;;;5071433;28;20497;-75
2023/04/24 11:52:36;;;;;;;11.18;6.82;;;16.90;99.90;;;;;;5072033;28;20052;-74
2023/04/24 11:55:03;;;;;;;12.35;7.05;;;17.00;99.90;;;;;;5070733;28;20032;-75
2023/04/24 11:57:34;;;;;;;10.35;6.97;;;17.30;99.90;;;;;;5072058;28;20382;-75
2023/04/24 12:00:01;;;;;;;10.40;7.25;;;17.40;99.90;;;;;;5072293;28;20036;-75
2023/04/24 12:02:27;;;;;;;14.75;7.47;;;17.50;99.90;;;;;;5071363;28;20041;-74
2023/04/24 12:04:53;;;;;;;7.70;6.90;;;17.60;99.90;;;;;;5071078;28;20032;-74
2023/04/24 12:07:19;;;;;;;11.80;7.13;;;17.60;99.90;;;;;;5073000;28;20505;-75
2023/04/24 12:09:47;;;;;;;13.60;7.10;;;17.50;99.90;;;;;;5071013;28;20024;-74
2023/04/24 12:12:14;;;;;;;12.73;6.57;;;17.50;99.90;;;;;;5071509;28;20043;-74
2023/04/24 12:14:48;;;;;;;12.20;6.75;;;17.20;99.90;;;;;;5072116;28;20031;-74
2023/04/24 12:17:14;;;;;;;10.32;6.72;;;17.10;99.90;;;;;;5070186;28;20036;-74
2023/04/24 12:19:45;;;;;;;10.65;6.18;;;17.00;99.90;;;;;;5070546;28;20108;-74
2023/04/24 12:22:11;;;;;;;11.82;5.95;;;17.00;99.90;;;;;;5072959;28;20398;-74
2023/04/24 12:24:59;;;;;;;10.00;5.65;;;16.90;99.90;;;;;;5072713;28;20032;-75
2023/04/24 12:27:25;;;;;;;10.48;6.45;;;16.70;99.90;;;;;;5070904;28;20038;-75
2023/04/24 12:29:55;;;;;;;10.20;6.03;;;16.70;99.90;;;;;;5072949;28;20040;-74
2023/04/24 12:32:21;;;;;;;7.45;5.95;;;16.80;99.90;;;;;;5070697;28;20427;-74
2023/04/24 12:34:48;;;;;;;8.55;6.18;;;16.90;99.90;;;;;;5071513;28;20032;-76
2023/04/24 12:37:15;;;;;;;10.15;5.95;;;16.90;99.90;;;;;;5071181;28;20489;-76
2023/04/24 12:39:57;;;;;;;14.98;6.30;;;17.00;99.90;;;;;;5071858;28;20036;-73